sensor_id;sensor_type;location;lat;lon;timestamp;temperature;humidity
18392;DHT22;9322;50.932;5.318;2022-12-05T00:01:35;3.40;99.90
18392;DHT22;9322;50.932;5.318;2022-12-05T00:04:03;3.40;99.90
18392;DHT22;9322;50.932;5.318;2022-12-05T00:06:30;3.30;99.90
18392;DHT22;9322;50.932;5.318;2022-12-05T00:08:56;3.40;99.90
18392;DHT22;9322;50.932;5.318;2022-12-05T00:11:24;3.40;99.90
18392;DHT22;9322;50.932;5.318;2022-12-05T00:13:52;3.40;99.90
18392;DHT22;9322;50.932;5.318;2022-12-05T00:16:20;3.40;99.90
18392;DHT22;9322;50.932;5.318;2022-12-05T00:18:46;3.40;99.90
18392;DHT22;9322;50.932;5.318;2022-12-05T00:21:15;3.50;99.90
18392;DHT22;9322;50.932;5.318;2022-12-05T00:23:41;3.40;99.90
18392;DHT22;9322;50.932;5.318;2022-12-05T00:26:07;3.40;99.90
18392;DHT22;9322;50.932;5.318;2022-12-05T00:28:33;3.50;99.90
18392;DHT22;9322;50.932;5.318;2022-12-05T00:31:04;3.50;99.90
18392;DHT22;9322;50.932;5.318;2022-12-05T00:33:30;3.40;99.90
18392;DHT22;9322;50.932;5.318;2022-12-05T00:36:05;3.40;99.90
18392;DHT22;9322;50.932;5.318;2022-12-05T00:38:31;3.40;99.90
18392;DHT22;9322;50.932;5.318;2022-12-05T00:41:05;3.40;99.90
18392;DHT22;9322;50.932;5.318;2022-12-05T00:43:31;3.50;99.90
18392;DHT22;9322;50.932;5.318;2022-12-05T00:46:03;3.30;99.90
18392;DHT22;9322;50.932;5.318;2022-12-05T00:48:29;3.40;99.90
18392;DHT22;9322;50.932;5.318;2022-12-05T00:53:30;3.40;99.90
18392;DHT22;9322;50.932;5.318;2022-12-05T00:56:00;3.40;99.90
18392;DHT22;9322;50.932;5.318;2022-12-05T00:58:26;3.40;99.90
18392;DHT22;9322;50.932;5.318;2022-12-05T01:00:51;3.40;99.90
18392;DHT22;9322;50.932;5.318;2022-12-05T01:03:17;3.40;99.90
18392;DHT22;9322;50.932;5.318;2022-12-05T01:05:42;3.40;99.90
18392;DHT22;9322;50.932;5.318;2022-12-05T01:08:08;3.40;99.90
18392;DHT22;9322;50.932;5.318;2022-12-05T01:10:34;3.40;99.90
18392;DHT22;9322;50.932;5.318;2022-12-05T01:12:59;3.40;99.90
18392;DHT22;9322;50.932;5.318;2022-12-05T01:15:25;3.30;99.90
18392;DHT22;9322;50.932;5.318;2022-12-05T01:17:50;3.40;99.90
18392;DHT22;9322;50.932;5.318;2022-12-05T01:20:16;3.40;99.90
18392;DHT22;9322;50.932;5.318;2022-12-05T01:22:42;3.40;99.90
18392;DHT22;9322;50.932;5.318;2022-12-05T01:25:07;3.50;99.90
18392;DHT22;9322;50.932;5.318;2022-12-05T01:27:33;3.30;99.90
18392;DHT22;9322;50.932;5.318;2022-12-05T01:29:59;3.30;99.90
18392;DHT22;9322;50.932;5.318;2022-12-05T01:32:25;3.50;99.90
18392;DHT22;9322;50.932;5.318;2022-12-05T01:34:50;3.40;99.90
18392;DHT22;9322;50.932;5.318;2022-12-05T01:37:16;3.40;99.90
18392;DHT22;9322;50.932;5.318;2022-12-05T01:39:42;3.40;99.90
18392;DHT22;9322;50.932;5.318;2022-12-05T01:42:08;3.50;99.90
18392;DHT22;9322;50.932;5.318;2022-12-05T01:47:01;3.40;99.90
18392;DHT22;9322;50.932;5.318;2022-12-05T01:51:54;3.50;99.90
18392;DHT22;9322;50.932;5.318;2022-12-05T01:54:22;3.40;99.90
18392;DHT22;9322;50.932;5.318;2022-12-05T01:57:00;3.40;99.90
18392;DHT22;9322;50.932;5.318;2022-12-05T01:59:28;3.50;99.90
18392;DHT22;9322;50.932;5.318;2022-12-05T02:01:54;3.40;99.90
18392;DHT22;9322;50.932;5.318;2022-12-05T02:04:20;3.40;99.90
18392;DHT22;9322;50.932;5.318;2022-12-05T02:06:46;3.50;99.90
18392;DHT22;9322;50.932;5.318;2022-12-05T02:09:12;3.50;99.90
18392;DHT22;9322;50.932;5.318;2022-12-05T02:11:55;3.60;99.90
18392;DHT22;9322;50.932;5.318;2022-12-05T02:14:34;3.50;99.90
18392;DHT22;9322;50.932;5.318;2022-12-05T02:25:11;3.20;99.90
18392;DHT22;9322;50.932;5.318;2022-12-05T02:28:07;3.20;99.90
18392;DHT22;9322;50.932;5.318;2022-12-05T02:30:58;3.30;99.90
18392;DHT22;9322;50.932;5.318;2022-12-05T02:33:45;3.40;99.90
18392;DHT22;9322;50.932;5.318;2022-12-05T02:36:37;3.50;99.90
18392;DHT22;9322;50.932;5.318;2022-12-05T02:39:15;3.40;99.90
18392;DHT22;9322;50.932;5.318;2022-12-05T02:41:50;3.50;99.90
18392;DHT22;9322;50.932;5.318;2022-12-05T02:47:07;3.50;99.90
18392;DHT22;9322;50.932;5.318;2022-12-05T02:49:35;3.40;99.90
18392;DHT22;9322;50.932;5.318;2022-12-05T02:52:03;3.40;99.90
18392;DHT22;9322;50.932;5.318;2022-12-05T02:54:34;3.50;99.90
18392;DHT22;9322;50.932;5.318;2022-12-05T02:57:01;3.50;99.90
18392;DHT22;9322;50.932;5.318;2022-12-05T02:59:27;3.50;99.90
18392;DHT22;9322;50.932;5.318;2022-12-05T03:01:53;3.40;99.90
18392;DHT22;9322;50.932;5.318;2022-12-05T03:04:21;3.30;99.90
18392;DHT22;9322;50.932;5.318;2022-12-05T03:09:19;3.30;99.90
18392;DHT22;9322;50.932;5.318;2022-12-05T03:11:52;3.20;99.90
18392;DHT22;9322;50.932;5.318;2022-12-05T03:14:25;3.10;99.90
18392;DHT22;9322;50.932;5.318;2022-12-05T03:16:56;3.10;99.90
18392;DHT22;9322;50.932;5.318;2022-12-05T03:19:29;3.10;99.90
18392;DHT22;9322;50.932;5.318;2022-12-05T03:22:06;3.20;99.90
18392;DHT22;9322;50.932;5.318;2022-12-05T03:24:36;3.10;99.90
18392;DHT22;9322;50.932;5.318;2022-12-05T03:27:24;3.10;99.90
18392;DHT22;9322;50.932;5.318;2022-12-05T03:29:53;3.20;99.90
18392;DHT22;9322;50.932;5.318;2022-12-05T03:32:29;3.20;99.90
18392;DHT22;9322;50.932;5.318;2022-12-05T03:40:31;3.30;99.90
18392;DHT22;9322;50.932;5.318;2022-12-05T03:43:28;3.30;99.90
18392;DHT22;9322;50.932;5.318;2022-12-05T03:46:12;3.50;99.90
18392;DHT22;9322;50.932;5.318;2022-12-05T03:48:59;3.40;99.90
18392;DHT22;9322;50.932;5.318;2022-12-05T03:51:36;3.40;99.90
18392;DHT22;9322;50.932;5.318;2022-12-05T03:54:23;3.40;99.90
18392;DHT22;9322;50.932;5.318;2022-12-05T03:56:53;3.50;99.90
18392;DHT22;9322;50.932;5.318;2022-12-05T04:02:16;3.50;99.90
18392;DHT22;9322;50.932;5.318;2022-12-05T04:04:50;3.50;99.90
18392;DHT22;9322;50.932;5.318;2022-12-05T04:07:19;3.50;99.90
18392;DHT22;9322;50.932;5.318;2022-12-05T04:09:49;3.30;99.90
18392;DHT22;9322;50.932;5.318;2022-12-05T04:12:22;3.30;99.90
18392;DHT22;9322;50.932;5.318;2022-12-05T04:14:56;3.30;99.90
18392;DHT22;9322;50.932;5.318;2022-12-05T04:20:17;3.20;99.90
18392;DHT22;9322;50.932;5.318;2022-12-05T04:23:23;3.20;99.90
18392;DHT22;9322;50.932;5.318;2022-12-05T04:26:19;3.10;99.90
18392;DHT22;9322;50.932;5.318;2022-12-05T04:28:53;3.10;99.90
18392;DHT22;9322;50.932;5.318;2022-12-05T04:31:28;3.20;99.90
18392;DHT22;9322;50.932;5.318;2022-12-05T04:34:01;3.30;99.90
18392;DHT22;9322;50.932;5.318;2022-12-05T04:36:33;3.40;99.90
18392;DHT22;9322;50.932;5.318;2022-12-05T04:39:10;3.30;99.90
18392;DHT22;9322;50.932;5.318;2022-12-05T04:41:40;3.30;99.90
18392;DHT22;9322;50.932;5.318;2022-12-05T04:44:10;3.40;99.90
18392;DHT22;9322;50.932;5.318;2022-12-05T04:46:39;3.40;99.90
18392;DHT22;9322;50.932;5.318;2022-12-05T04:49:09;3.40;99.90
18392;DHT22;9322;50.932;5.318;2022-12-05T04:51:36;3.30;99.90
18392;DHT22;9322;50.932;5.318;2022-12-05T04:55:00;3.30;99.90
18392;DHT22;9322;50.932;5.318;2022-12-05T04:57:26;3.30;99.90
18392;DHT22;9322;50.932;5.318;2022-12-05T04:59:54;3.40;99.90
18392;DHT22;9322;50.932;5.318;2022-12-05T05:02:32;3.30;99.90
18392;DHT22;9322;50.932;5.318;2022-12-05T05:05:00;3.30;99.90
18392;DHT22;9322;50.932;5.318;2022-12-05T05:07:27;3.30;99.90
18392;DHT22;9322;50.932;5.318;2022-12-05T05:09:52;3.40;99.90
18392;DHT22;9322;50.932;5.318;2022-12-05T05:12:18;3.30;99.90
18392;DHT22;9322;50.932;5.318;2022-12-05T05:14:44;3.40;99.90
18392;DHT22;9322;50.932;5.318;2022-12-05T05:17:09;3.40;99.90
18392;DHT22;9322;50.932;5.318;2022-12-05T05:19:35;3.30;99.90
18392;DHT22;9322;50.932;5.318;2022-12-05T05:22:00;3.30;99.90
18392;DHT22;9322;50.932;5.318;2022-12-05T05:24:26;3.40;99.90
18392;DHT22;9322;50.932;5.318;2022-12-05T05:26:52;3.40;99.90
18392;DHT22;9322;50.932;5.318;2022-12-05T05:29:18;3.50;99.90
18392;DHT22;9322;50.932;5.318;2022-12-05T05:31:43;3.40;99.90
18392;DHT22;9322;50.932;5.318;2022-12-05T05:34:10;3.50;99.90
18392;DHT22;9322;50.932;5.318;2022-12-05T05:36:37;3.40;99.90
18392;DHT22;9322;50.932;5.318;2022-12-05T05:39:04;3.40;99.90
18392;DHT22;9322;50.932;5.318;2022-12-05T05:41:33;3.30;99.90
18392;DHT22;9322;50.932;5.318;2022-12-05T05:43:59;3.30;99.90
18392;DHT22;9322;50.932;5.318;2022-12-05T05:46:27;3.30;99.90
18392;DHT22;9322;50.932;5.318;2022-12-05T05:48:53;3.40;99.90
18392;DHT22;9322;50.932;5.318;2022-12-05T05:51:20;3.10;99.90
18392;DHT22;9322;50.932;5.318;2022-12-05T05:53:46;3.20;99.90
18392;DHT22;9322;50.932;5.318;2022-12-05T05:56:17;3.20;99.90
18392;DHT22;9322;50.932;5.318;2022-12-05T05:58:43;3.10;99.90
18392;DHT22;9322;50.932;5.318;2022-12-05T06:01:14;3.00;99.90
18392;DHT22;9322;50.932;5.318;2022-12-05T06:03:40;3.00;99.90
18392;DHT22;9322;50.932;5.318;2022-12-05T06:06:08;2.90;99.90
18392;DHT22;9322;50.932;5.318;2022-12-05T06:08:37;3.00;99.90
18392;DHT22;9322;50.932;5.318;2022-12-05T06:11:08;2.90;99.90
18392;DHT22;9322;50.932;5.318;2022-12-05T06:13:34;2.90;99.90
18392;DHT22;9322;50.932;5.318;2022-12-05T06:16:01;3.00;99.90
18392;DHT22;9322;50.932;5.318;2022-12-05T06:18:26;3.40;99.90
18392;DHT22;9322;50.932;5.318;2022-12-05T06:20:53;3.00;99.90
18392;DHT22;9322;50.932;5.318;2022-12-05T06:23:20;2.90;99.90
18392;DHT22;9322;50.932;5.318;2022-12-05T06:25:49;2.80;99.90
18392;DHT22;9322;50.932;5.318;2022-12-05T06:28:16;2.80;99.90
18392;DHT22;9322;50.932;5.318;2022-12-05T06:30:42;2.90;99.90
18392;DHT22;9322;50.932;5.318;2022-12-05T06:33:08;2.80;99.90
18392;DHT22;9322;50.932;5.318;2022-12-05T06:35:33;2.80;99.90
18392;DHT22;9322;50.932;5.318;2022-12-05T06:37:59;2.90;99.90
18392;DHT22;9322;50.932;5.318;2022-12-05T06:40:25;2.80;99.90
18392;DHT22;9322;50.932;5.318;2022-12-05T06:42:51;2.80;99.90
18392;DHT22;9322;50.932;5.318;2022-12-05T06:45:16;2.80;99.90
18392;DHT22;9322;50.932;5.318;2022-12-05T06:47:42;2.80;99.90
18392;DHT22;9322;50.932;5.318;2022-12-05T06:50:08;2.80;99.90
18392;DHT22;9322;50.932;5.318;2022-12-05T06:52:34;2.70;99.90
18392;DHT22;9322;50.932;5.318;2022-12-05T06:54:59;2.70;99.90
18392;DHT22;9322;50.932;5.318;2022-12-05T06:57:27;2.70;99.90
18392;DHT22;9322;50.932;5.318;2022-12-05T06:59:53;2.80;99.90
18392;DHT22;9322;50.932;5.318;2022-12-05T07:02:38;2.90;99.90
18392;DHT22;9322;50.932;5.318;2022-12-05T07:05:07;2.90;99.90
18392;DHT22;9322;50.932;5.318;2022-12-05T07:07:33;3.00;99.90
18392;DHT22;9322;50.932;5.318;2022-12-05T07:09:58;3.00;99.90
18392;DHT22;9322;50.932;5.318;2022-12-05T07:12:24;2.80;99.90
18392;DHT22;9322;50.932;5.318;2022-12-05T07:14:50;2.70;99.90
18392;DHT22;9322;50.932;5.318;2022-12-05T07:17:17;2.60;99.90
18392;DHT22;9322;50.932;5.318;2022-12-05T07:19:43;2.60;99.90
18392;DHT22;9322;50.932;5.318;2022-12-05T07:22:09;2.60;99.90
18392;DHT22;9322;50.932;5.318;2022-12-05T07:24:36;2.60;99.90
18392;DHT22;9322;50.932;5.318;2022-12-05T07:27:02;2.70;99.90
18392;DHT22;9322;50.932;5.318;2022-12-05T07:29:27;2.70;99.90
18392;DHT22;9322;50.932;5.318;2022-12-05T07:31:53;2.60;99.90
18392;DHT22;9322;50.932;5.318;2022-12-05T07:34:19;2.60;99.90
18392;DHT22;9322;50.932;5.318;2022-12-05T07:36:45;2.70;99.90
18392;DHT22;9322;50.932;5.318;2022-12-05T07:39:10;2.70;99.90
18392;DHT22;9322;50.932;5.318;2022-12-05T07:41:39;2.70;99.90
18392;DHT22;9322;50.932;5.318;2022-12-05T07:44:08;2.60;99.90
18392;DHT22;9322;50.932;5.318;2022-12-05T07:46:35;2.70;99.90
18392;DHT22;9322;50.932;5.318;2022-12-05T07:49:01;2.70;99.90
18392;DHT22;9322;50.932;5.318;2022-12-05T07:51:26;2.80;99.90
18392;DHT22;9322;50.932;5.318;2022-12-05T07:53:52;2.80;99.90
18392;DHT22;9322;50.932;5.318;2022-12-05T07:56:18;2.70;99.90
18392;DHT22;9322;50.932;5.318;2022-12-05T07:58:45;2.70;99.90
18392;DHT22;9322;50.932;5.318;2022-12-05T08:01:14;2.90;99.90
18392;DHT22;9322;50.932;5.318;2022-12-05T08:03:40;2.80;99.90
18392;DHT22;9322;50.932;5.318;2022-12-05T08:06:09;2.80;99.90
18392;DHT22;9322;50.932;5.318;2022-12-05T08:08:36;2.70;99.90
18392;DHT22;9322;50.932;5.318;2022-12-05T08:11:04;2.70;99.90
18392;DHT22;9322;50.932;5.318;2022-12-05T08:13:32;2.70;99.90
18392;DHT22;9322;50.932;5.318;2022-12-05T08:16:03;2.80;99.90
18392;DHT22;9322;50.932;5.318;2022-12-05T08:18:30;2.80;99.90
18392;DHT22;9322;50.932;5.318;2022-12-05T08:21:01;2.80;99.90
18392;DHT22;9322;50.932;5.318;2022-12-05T08:23:28;3.00;99.90
18392;DHT22;9322;50.932;5.318;2022-12-05T08:25:54;2.80;99.90
18392;DHT22;9322;50.932;5.318;2022-12-05T08:28:20;2.80;99.90
18392;DHT22;9322;50.932;5.318;2022-12-05T08:30:46;2.80;99.90
18392;DHT22;9322;50.932;5.318;2022-12-05T08:33:11;3.00;99.90
18392;DHT22;9322;50.932;5.318;2022-12-05T08:35:37;3.00;99.90
18392;DHT22;9322;50.932;5.318;2022-12-05T08:38:02;2.90;99.90
18392;DHT22;9322;50.932;5.318;2022-12-05T08:40:28;3.00;99.90
18392;DHT22;9322;50.932;5.318;2022-12-05T08:42:56;2.90;99.90
18392;DHT22;9322;50.932;5.318;2022-12-05T08:45:22;3.00;99.90
18392;DHT22;9322;50.932;5.318;2022-12-05T08:47:47;3.00;99.90
18392;DHT22;9322;50.932;5.318;2022-12-05T08:50:13;3.10;99.90
18392;DHT22;9322;50.932;5.318;2022-12-05T08:52:39;3.10;99.90
18392;DHT22;9322;50.932;5.318;2022-12-05T08:55:05;3.00;99.90
18392;DHT22;9322;50.932;5.318;2022-12-05T08:57:30;3.10;99.90
18392;DHT22;9322;50.932;5.318;2022-12-05T08:59:56;3.10;99.90
18392;DHT22;9322;50.932;5.318;2022-12-05T09:02:23;3.10;99.90
18392;DHT22;9322;50.932;5.318;2022-12-05T09:04:51;3.10;99.90
18392;DHT22;9322;50.932;5.318;2022-12-05T09:07:17;3.20;99.90
18392;DHT22;9322;50.932;5.318;2022-12-05T09:09:43;3.30;99.90
18392;DHT22;9322;50.932;5.318;2022-12-05T09:12:08;3.40;99.90
18392;DHT22;9322;50.932;5.318;2022-12-05T09:14:34;3.30;99.90
18392;DHT22;9322;50.932;5.318;2022-12-05T09:16:59;3.30;99.90
18392;DHT22;9322;50.932;5.318;2022-12-05T09:19:26;3.30;99.90
18392;DHT22;9322;50.932;5.318;2022-12-05T09:21:53;3.40;99.90
18392;DHT22;9322;50.932;5.318;2022-12-05T09:24:19;3.40;99.90
18392;DHT22;9322;50.932;5.318;2022-12-05T09:26:46;3.50;99.90
18392;DHT22;9322;50.932;5.318;2022-12-05T09:29:12;3.50;99.90
18392;DHT22;9322;50.932;5.318;2022-12-05T09:31:39;3.50;99.90
18392;DHT22;9322;50.932;5.318;2022-12-05T09:34:07;3.50;99.90
18392;DHT22;9322;50.932;5.318;2022-12-05T09:36:33;3.60;99.90
18392;DHT22;9322;50.932;5.318;2022-12-05T09:39:02;3.60;99.90
18392;DHT22;9322;50.932;5.318;2022-12-05T09:44:55;3.60;99.90
18392;DHT22;9322;50.932;5.318;2022-12-05T09:53:01;3.60;99.90
18392;DHT22;9322;50.932;5.318;2022-12-05T09:55:44;3.30;99.90
18392;DHT22;9322;50.932;5.318;2022-12-05T10:01:18;3.50;99.90
18392;DHT22;9322;50.932;5.318;2022-12-05T10:17:34;3.60;99.90
18392;DHT22;9322;50.932;5.318;2022-12-05T10:20:36;3.60;99.90
18392;DHT22;9322;50.932;5.318;2022-12-05T10:23:00;3.50;99.90
18392;DHT22;9322;50.932;5.318;2022-12-05T10:25:27;3.50;99.90
18392;DHT22;9322;50.932;5.318;2022-12-05T10:27:57;3.40;99.90
18392;DHT22;9322;50.932;5.318;2022-12-05T10:30:28;3.30;99.90
18392;DHT22;9322;50.932;5.318;2022-12-05T10:32:59;3.30;99.90
18392;DHT22;9322;50.932;5.318;2022-12-05T10:35:34;3.20;99.90
18392;DHT22;9322;50.932;5.318;2022-12-05T10:40:41;3.30;99.90
18392;DHT22;9322;50.932;5.318;2022-12-05T10:43:11;3.40;99.90
18392;DHT22;9322;50.932;5.318;2022-12-05T10:45:43;3.40;99.90
18392;DHT22;9322;50.932;5.318;2022-12-05T10:48:15;3.40;99.90
18392;DHT22;9322;50.932;5.318;2022-12-05T10:50:43;3.40;99.90
18392;DHT22;9322;50.932;5.318;2022-12-05T10:53:16;3.40;99.90
18392;DHT22;9322;50.932;5.318;2022-12-05T10:55:45;3.30;99.90
18392;DHT22;9322;50.932;5.318;2022-12-05T10:58:18;3.40;99.90
18392;DHT22;9322;50.932;5.318;2022-12-05T11:00:57;3.30;99.90
18392;DHT22;9322;50.932;5.318;2022-12-05T11:03:38;3.40;99.90
18392;DHT22;9322;50.932;5.318;2022-12-05T11:06:37;3.30;99.90
18392;DHT22;9322;50.932;5.318;2022-12-05T11:11:37;3.30;99.90
18392;DHT22;9322;50.932;5.318;2022-12-05T11:14:21;3.20;99.90
18392;DHT22;9322;50.932;5.318;2022-12-05T11:16:53;3.20;99.90
18392;DHT22;9322;50.932;5.318;2022-12-05T11:19:35;3.10;99.90
18392;DHT22;9322;50.932;5.318;2022-12-05T11:22:02;3.00;99.90
18392;DHT22;9322;50.932;5.318;2022-12-05T11:24:33;3.20;99.90
18392;DHT22;9322;50.932;5.318;2022-12-05T11:27:18;3.20;99.90
18392;DHT22;9322;50.932;5.318;2022-12-05T11:30:02;3.20;99.90
18392;DHT22;9322;50.932;5.318;2022-12-05T11:32:31;3.30;99.90
18392;DHT22;9322;50.932;5.318;2022-12-05T11:35:07;3.40;99.90
18392;DHT22;9322;50.932;5.318;2022-12-05T11:37:50;3.50;99.90
18392;DHT22;9322;50.932;5.318;2022-12-05T11:40:46;3.60;99.90
18392;DHT22;9322;50.932;5.318;2022-12-05T11:46:28;3.60;99.90
18392;DHT22;9322;50.932;5.318;2022-12-05T11:51:56;3.50;99.90
18392;DHT22;9322;50.932;5.318;2022-12-05T11:54:47;3.50;99.90
18392;DHT22;9322;50.932;5.318;2022-12-05T11:58:15;3.60;99.90
18392;DHT22;9322;50.932;5.318;2022-12-05T12:00:25;3.70;99.90
18392;DHT22;9322;50.932;5.318;2022-12-05T12:06:05;3.50;99.90
18392;DHT22;9322;50.932;5.318;2022-12-05T12:11:41;3.50;99.90
18392;DHT22;9322;50.932;5.318;2022-12-05T12:14:36;3.60;99.90
18392;DHT22;9322;50.932;5.318;2022-12-05T12:23:25;3.50;99.90
18392;DHT22;9322;50.932;5.318;2022-12-05T12:33:57;3.50;99.90
18392;DHT22;9322;50.932;5.318;2022-12-05T12:36:41;3.50;99.90
18392;DHT22;9322;50.932;5.318;2022-12-05T12:50:04;3.70;99.90
18392;DHT22;9322;50.932;5.318;2022-12-05T12:56:12;3.70;99.90
18392;DHT22;9322;50.932;5.318;2022-12-05T13:01:53;3.90;99.90
18392;DHT22;9322;50.932;5.318;2022-12-05T13:07:19;3.80;99.90
18392;DHT22;9322;50.932;5.318;2022-12-05T13:09:52;3.70;99.90
18392;DHT22;9322;50.932;5.318;2022-12-05T13:12:29;3.70;99.90
18392;DHT22;9322;50.932;5.318;2022-12-05T13:15:30;3.80;99.90
18392;DHT22;9322;50.932;5.318;2022-12-05T13:17:53;3.90;99.90
18392;DHT22;9322;50.932;5.318;2022-12-05T13:20:21;3.80;99.90
18392;DHT22;9322;50.932;5.318;2022-12-05T13:22:49;3.80;99.90
18392;DHT22;9322;50.932;5.318;2022-12-05T13:25:16;4.00;99.90
18392;DHT22;9322;50.932;5.318;2022-12-05T13:30:54;3.90;99.90
18392;DHT22;9322;50.932;5.318;2022-12-05T13:33:30;3.90;99.90
18392;DHT22;9322;50.932;5.318;2022-12-05T13:36:06;3.90;99.90
18392;DHT22;9322;50.932;5.318;2022-12-05T13:38:59;3.90;99.90
18392;DHT22;9322;50.932;5.318;2022-12-05T13:41:47;3.90;99.90
18392;DHT22;9322;50.932;5.318;2022-12-05T13:44:39;3.80;99.90
18392;DHT22;9322;50.932;5.318;2022-12-05T13:47:18;3.70;99.90
18392;DHT22;9322;50.932;5.318;2022-12-05T13:49:51;3.70;99.90
18392;DHT22;9322;50.932;5.318;2022-12-05T13:52:24;3.70;99.90
18392;DHT22;9322;50.932;5.318;2022-12-05T13:55:01;3.70;99.90
18392;DHT22;9322;50.932;5.318;2022-12-05T14:00:20;3.70;99.90
18392;DHT22;9322;50.932;5.318;2022-12-05T14:02:57;3.80;99.90
18392;DHT22;9322;50.932;5.318;2022-12-05T14:07:56;3.90;99.90
18392;DHT22;9322;50.932;5.318;2022-12-05T14:15:27;3.70;99.90
18392;DHT22;9322;50.932;5.318;2022-12-05T14:32:14;3.70;99.90
18392;DHT22;9322;50.932;5.318;2022-12-05T14:35:15;3.70;99.90
18392;DHT22;9322;50.932;5.318;2022-12-05T14:37:56;3.60;99.90
18392;DHT22;9322;50.932;5.318;2022-12-05T14:40:26;3.60;99.90
18392;DHT22;9322;50.932;5.318;2022-12-05T14:45:37;3.70;99.90
18392;DHT22;9322;50.932;5.318;2022-12-05T14:48:36;3.60;99.90
18392;DHT22;9322;50.932;5.318;2022-12-05T14:53:56;3.60;99.90
18392;DHT22;9322;50.932;5.318;2022-12-05T14:56:27;3.70;99.90
18392;DHT22;9322;50.932;5.318;2022-12-05T14:59:05;3.60;99.90
18392;DHT22;9322;50.932;5.318;2022-12-05T15:01:52;3.60;99.90
18392;DHT22;9322;50.932;5.318;2022-12-05T15:04:39;3.50;99.90
18392;DHT22;9322;50.932;5.318;2022-12-05T15:07:12;3.50;99.90
18392;DHT22;9322;50.932;5.318;2022-12-05T15:10:03;3.40;99.90
18392;DHT22;9322;50.932;5.318;2022-12-05T15:12:50;3.50;99.90
18392;DHT22;9322;50.932;5.318;2022-12-05T15:15:42;3.30;99.90
18392;DHT22;9322;50.932;5.318;2022-12-05T15:20:49;3.30;99.90
18392;DHT22;9322;50.932;5.318;2022-12-05T15:24:02;3.30;99.90
18392;DHT22;9322;50.932;5.318;2022-12-05T15:26:38;3.20;99.90
18392;DHT22;9322;50.932;5.318;2022-12-05T15:34:28;3.10;99.90
18392;DHT22;9322;50.932;5.318;2022-12-05T15:37:15;3.00;99.90
18392;DHT22;9322;50.932;5.318;2022-12-05T15:40:00;3.10;99.90
18392;DHT22;9322;50.932;5.318;2022-12-05T15:42:29;3.20;99.90
18392;DHT22;9322;50.932;5.318;2022-12-05T15:45:19;3.20;99.90
18392;DHT22;9322;50.932;5.318;2022-12-05T16:00:35;3.00;99.90
18392;DHT22;9322;50.932;5.318;2022-12-05T16:03:18;3.10;99.90
18392;DHT22;9322;50.932;5.318;2022-12-05T16:05:51;3.00;99.90
18392;DHT22;9322;50.932;5.318;2022-12-05T16:08:20;3.10;99.90
18392;DHT22;9322;50.932;5.318;2022-12-05T16:10:45;3.10;99.90
18392;DHT22;9322;50.932;5.318;2022-12-05T16:13:14;3.10;99.90
18392;DHT22;9322;50.932;5.318;2022-12-05T16:15:48;3.10;99.90
18392;DHT22;9322;50.932;5.318;2022-12-05T16:18:46;3.00;99.90
18392;DHT22;9322;50.932;5.318;2022-12-05T16:21:32;3.00;99.90
18392;DHT22;9322;50.932;5.318;2022-12-05T16:24:14;3.10;99.90
18392;DHT22;9322;50.932;5.318;2022-12-05T16:26:41;3.00;99.90
18392;DHT22;9322;50.932;5.318;2022-12-05T16:29:25;3.00;99.90
18392;DHT22;9322;50.932;5.318;2022-12-05T16:31:57;3.00;99.90
18392;DHT22;9322;50.932;5.318;2022-12-05T16:34:24;3.10;99.90
18392;DHT22;9322;50.932;5.318;2022-12-05T16:36:52;3.10;99.90
18392;DHT22;9322;50.932;5.318;2022-12-05T16:39:19;3.10;99.90
18392;DHT22;9322;50.932;5.318;2022-12-05T16:41:45;3.10;99.90
18392;DHT22;9322;50.932;5.318;2022-12-05T16:46:53;3.00;99.90
18392;DHT22;9322;50.932;5.318;2022-12-05T16:54:31;3.10;99.90
18392;DHT22;9322;50.932;5.318;2022-12-05T16:56:58;3.10;99.90
18392;DHT22;9322;50.932;5.318;2022-12-05T17:01:55;3.00;99.90
18392;DHT22;9322;50.932;5.318;2022-12-05T17:04:21;3.10;99.90
18392;DHT22;9322;50.932;5.318;2022-12-05T17:06:46;3.10;99.90
18392;DHT22;9322;50.932;5.318;2022-12-05T17:09:12;3.10;99.90
18392;DHT22;9322;50.932;5.318;2022-12-05T17:11:40;3.00;99.90
18392;DHT22;9322;50.932;5.318;2022-12-05T17:14:12;3.00;99.90
18392;DHT22;9322;50.932;5.318;2022-12-05T17:16:39;2.90;99.90
18392;DHT22;9322;50.932;5.318;2022-12-05T17:19:05;3.00;99.90
18392;DHT22;9322;50.932;5.318;2022-12-05T17:21:32;3.00;99.90
18392;DHT22;9322;50.932;5.318;2022-12-05T17:23:59;2.90;99.90
18392;DHT22;9322;50.932;5.318;2022-12-05T17:26:24;3.00;99.90
18392;DHT22;9322;50.932;5.318;2022-12-05T17:28:51;3.00;99.90
18392;DHT22;9322;50.932;5.318;2022-12-05T17:31:19;3.00;99.90
18392;DHT22;9322;50.932;5.318;2022-12-05T17:33:45;3.10;99.90
18392;DHT22;9322;50.932;5.318;2022-12-05T17:36:11;3.00;99.90
18392;DHT22;9322;50.932;5.318;2022-12-05T17:38:37;3.00;99.90
18392;DHT22;9322;50.932;5.318;2022-12-05T17:41:03;3.00;99.90
18392;DHT22;9322;50.932;5.318;2022-12-05T17:43:29;3.00;99.90
18392;DHT22;9322;50.932;5.318;2022-12-05T17:45:54;3.10;99.90
18392;DHT22;9322;50.932;5.318;2022-12-05T17:48:20;3.10;99.90
18392;DHT22;9322;50.932;5.318;2022-12-05T17:50:47;3.10;99.90
18392;DHT22;9322;50.932;5.318;2022-12-05T17:53:18;3.20;99.90
18392;DHT22;9322;50.932;5.318;2022-12-05T17:55:45;3.30;99.90
18392;DHT22;9322;50.932;5.318;2022-12-05T17:58:13;3.20;99.90
18392;DHT22;9322;50.932;5.318;2022-12-05T18:00:40;3.10;99.90
18392;DHT22;9322;50.932;5.318;2022-12-05T18:03:08;3.10;99.90
18392;DHT22;9322;50.932;5.318;2022-12-05T18:05:36;3.20;99.90
18392;DHT22;9322;50.932;5.318;2022-12-05T18:08:02;3.20;99.90
18392;DHT22;9322;50.932;5.318;2022-12-05T18:10:28;3.30;99.90
18392;DHT22;9322;50.932;5.318;2022-12-05T18:12:53;3.20;99.90
18392;DHT22;9322;50.932;5.318;2022-12-05T18:15:19;3.20;99.90
18392;DHT22;9322;50.932;5.318;2022-12-05T18:17:44;3.20;99.90
18392;DHT22;9322;50.932;5.318;2022-12-05T18:20:12;3.20;99.90
18392;DHT22;9322;50.932;5.318;2022-12-05T18:22:38;3.20;99.90
18392;DHT22;9322;50.932;5.318;2022-12-05T18:25:05;3.20;99.90
18392;DHT22;9322;50.932;5.318;2022-12-05T18:27:33;3.30;99.90
18392;DHT22;9322;50.932;5.318;2022-12-05T18:29:59;3.20;99.90
18392;DHT22;9322;50.932;5.318;2022-12-05T18:32:24;3.30;99.90
18392;DHT22;9322;50.932;5.318;2022-12-05T18:34:50;3.30;99.90
18392;DHT22;9322;50.932;5.318;2022-12-05T18:37:16;3.30;99.90
18392;DHT22;9322;50.932;5.318;2022-12-05T18:39:43;3.20;99.90
18392;DHT22;9322;50.932;5.318;2022-12-05T18:42:09;3.30;99.90
18392;DHT22;9322;50.932;5.318;2022-12-05T18:44:34;3.40;99.90
18392;DHT22;9322;50.932;5.318;2022-12-05T18:47:00;3.30;99.90
18392;DHT22;9322;50.932;5.318;2022-12-05T18:49:25;3.30;99.90
18392;DHT22;9322;50.932;5.318;2022-12-05T18:51:51;3.40;99.90
18392;DHT22;9322;50.932;5.318;2022-12-05T18:54:18;3.40;99.90
18392;DHT22;9322;50.932;5.318;2022-12-05T18:56:44;3.20;99.90
18392;DHT22;9322;50.932;5.318;2022-12-05T18:59:15;3.40;99.90
18392;DHT22;9322;50.932;5.318;2022-12-05T19:01:41;3.50;99.90
18392;DHT22;9322;50.932;5.318;2022-12-05T19:04:08;3.30;99.90
18392;DHT22;9322;50.932;5.318;2022-12-05T19:06:37;3.20;99.90
18392;DHT22;9322;50.932;5.318;2022-12-05T19:09:09;3.20;99.90
18392;DHT22;9322;50.932;5.318;2022-12-05T19:11:36;3.20;99.90
18392;DHT22;9322;50.932;5.318;2022-12-05T19:14:03;3.30;99.90
18392;DHT22;9322;50.932;5.318;2022-12-05T19:16:30;3.40;99.90
18392;DHT22;9322;50.932;5.318;2022-12-05T19:18:59;3.40;99.90
18392;DHT22;9322;50.932;5.318;2022-12-05T19:21:27;3.40;99.90